Wednesday, November 14, 2018, 7:11 AM GMT
Back to Local

CYZX, Greenwood, N. S.

Location: , , Canada Lat: 44.983
Local Time: 7:11 AM GMT ( 7:11 GMT) Lon: -64.917
Time Zone: GMT Elev: 91 ft

Show me the last for .
Show Decoded

2018-11-14 06:40 METAR CYZX 140640Z 27029G36KT 15SM FEW028 OVC030 04/01 A2954 RMK SC2SC6 SLP004 =
2018-11-14 06:30 METAR CYZX 140630Z 27022G28KT 15SM FEW015 OVC024 04/02 A2953 RMK SF2SC6 SLP002 =
2018-11-14 06:00 METAR CYZX 140600Z 26020G29KT 10SM FEW013 OVC015 04/03 A2952 RMK SF2SF6 SLP998 =
2018-11-14 05:26 METAR CYZX 140526Z 27016G31KT 10SM OVC015 05/03 A2951 RMK SF8 PRESRR SLP995 =
2018-11-14 05:12 METAR CYZX 140512Z 27023G32KT 8SM OVC012 05/04 A2950 RMK SF8 SLP990 =
2018-11-14 05:00 METAR CYZX 140500Z 27021G26KT 2 1/2SM -DZ BR OVC005 05/05 A2949 RMK ST8 PRESRR
                 SLP987 =
2018-11-14 04:37 METAR CYZX 140437Z CCA 27027G37KT 3SM -RA BR OVC005 06/05 A2947 RMK SC8 VIS VRB
                 2 1/4-4 PRESRR SLP979 =
2018-11-14 04:22 METAR CYZX 140422Z 27029G40KT 4SM -RA BR OVC005 09/09 A2944 RMK SC8 PRESRR
                 SLP970 =
2018-11-14 04:09 METAR CYZX 140409Z 25023G30KT 10SM OVC014 11/09 A2939 RMK SC8 PRESRR SLP954 =
2018-11-14 04:00 METAR CYZX 140400Z 25021G29KT 6SM -DZ BR OVC009 11/09 A2938 RMK SC8 PCPN VRY LGT
                 SLP950 =
2018-11-14 03:30 METAR CYZX 140330Z 24015KT 3SM -DZ BR OVC004 10/10 A2937 RMK SC8 PCPN VRY LGT
                 SLP946 =
2018-11-14 03:14 METAR CYZX 140314Z 24006KT 3SM -DZ BR OVC006 10/10 A2937 RMK SC8 PCPN VRY LGT
                 SLP947 =
2018-11-14 03:00 METAR CYZX 140300Z CCA 24007KT 6SM BR SCT010 OVC015 10/10 A2937 RMK SC4SC4
                 SLP946 =
2018-11-14 02:21 METAR CYZX 140221Z 20004KT 12SM SCT010 OVC025 10/08 A2938 RMK SC4SC4 SLP949 =
2018-11-14 02:00 METAR CYZX 140200Z 15004KT 10SM BKN025 OVC066 10/08 A2939 RMK SC5AC3 SLP954 =
2018-11-14 01:31 METAR CYZX 140131Z 14003KT 8SM FEW012 SCT045 OVC066 09/08 A2943 RMK SF2SC2AC4
                 SLP968 =
2018-11-14 01:00 METAR CYZX 140100Z 13006G25KT 5SM -DZ BR FEW018 SCT045 OVC066 09/07 A2945 RMK
                 SC2SC2AC4 SLP973 =
2018-11-14 00:44 METAR CYZX 140044Z 14019G32KT 5SM -DZ BR SCT018 OVC066 09/08 A2947 RMK SC4AC4
                 PRESFR SLP982 =
2018-11-14 00:00 METAR CYZX 140000Z 14019G32KT 5SM -RA BR SCT018 OVC066 08/07 A2953 RMK SC4AC4
                 PRESFR SLP002 =
2018-11-13 23:48 METAR CYZX 132348Z 14023G32KT 5SM -RA BR SCT018 OVC066 08/07 A2956 RMK SC4AC4
                 PRESFR SLP011 =
2018-11-13 23:00 METAR CYZX 132300Z 13021G33KT 3SM -RA BR BKN018 OVC060 07/06 A2964 RMK SC5SC3
                 PRESFR SLP038 =
2018-11-13 22:36 METAR CYZX 132236Z 12020G34KT 3SM -RA BR BKN017 OVC030 06/04 A2968 RMK SC5SC3
                 PRESFR SLP051 =
2018-11-13 22:00 METAR CYZX 132200Z 11018G33KT 3SM -RA BR BKN013 OVC040 04/03 A2974 RMK SC6SC2
                 PRESFR SLP073 =
2018-11-13 21:00 METAR CYZX 132100Z 08011G17KT 3SM -RA BR OVC013 03/02 A2992 RMK SC8 PRESFR
                 SLP133 =
2018-11-13 20:00 METAR CYZX 132000Z 07009G15KT 3SM -RA BR OVC012 03/01 A3000 RMK SC8 PRESFR
                 SLP162 =
2018-11-13 19:29 METAR CYZX 131929Z 06012KT 3SM -RA BR OVC012 02/01 A3003 RMK SC8 PRESFR SLP172 =
2018-11-13 19:00 METAR CYZX 131900Z 06009KT 2SM -RA BR OVC011 01/00 A3008 RMK SF8 PRESFR SLP186 =
2018-11-13 18:41 METAR CYZX 131841Z 07011KT 2SM -RA BR BKN011 OVC023 01/01 A3010 RMK SF6SC2
                 PRESFR CIG RAG SLP194 =
2018-11-13 18:28 METAR CYZX 131828Z 07011KT 2SM -RASN OVC011 01/01 A3012 RMK SF8 PRESFR CIG RAG
                 SLP202 =
2018-11-13 18:00 METAR CYZX 131800Z 08012KT 2SM -SHRASN BKN011 OVC023 01/00 A3016 RMK SF6SC2
                 PRESFR SLP214 =
2018-11-13 17:13 METAR CYZX 131713Z 08006KT 2SM -SHRASN FEW008 BKN012 OVC028 01/01 A3023 RMK
                 SF2SC4SC2 SLP237 =
2018-11-13 17:00 METAR CYZX 131700Z 10007KT 1 1/2SM -SHSN SCT007 BKN014 OVC028 01/00 A3024 RMK
                 SF3SC3SC2 SLP241 =
2018-11-13 16:27 METAR CYZX 131627Z 10005KT 1 1/2SM -SHSN SCT007 BKN011 OVC020 01/00 A3026 RMK
                 SF3SC3SC2 PRESFR VIS LWR N SLP249 =
2018-11-13 16:00 METAR CYZX 131600Z 11004KT 1SM -SHSN FEW009 BKN014 OVC020 01/M00 A3029 RMK
                 SF2SC2SC3 SLP259 =
2018-11-13 15:59 METAR CYZX 131559Z 11003KT 1SM -SHSN FEW009 BKN014 OVC020 01/M00 A3029 RMK
                 SF2SC2SC3 VIS LWR NE SLP260 =
2018-11-13 15:44 METAR CYZX 131544Z 15006KT 1 1/2SM -SHSN BKN014 OVC030 02/M01 A3030 RMK SC5SC3
                 VIS LWR NE SLP263 =
2018-11-13 15:36 METAR CYZX 131536Z 15007KT 2SM -SHSN SCT014 OVC030 02/M01 A3031 RMK SC3SC5
                 SLP266 =
2018-11-13 15:30 METAR CYZX 131530Z 15005KT 3SM -SHSN FEW017 OVC030 03/M02 A3031 RMK SC2SC6
                 SLP266 =
2018-11-13 15:09 METAR CYZX 131509Z 17009KT 12SM -SHSN OVC030 03/M03 A3032 RMK SC8 VIS LWR W
                 SLP269 =
2018-11-13 15:00 METAR CYZX 131500Z 17007KT 15SM OVC045 03/M03 A3032 RMK SC8 SLP270 =
2018-11-13 14:00 METAR CYZX 131400Z 09002KT 15SM OVC050 01/M02 A3034 RMK SC8 SLP277 =
2018-11-13 13:00 METAR CYZX 131300Z 00000KT 15SM OVC050 01/M02 A3038 RMK SC8 SLP288 =
2018-11-13 12:00 METAR CYZX 131200Z 00000KT 15SM OVC050 M00/M03 A3039 RMK SC8 SLP291 =
2018-11-13 11:00 METAR CYZX 131100Z 06003KT 15SM OVC080 M01/M04 A3039 RMK AC8 SLP293 =
2018-11-13 10:00 METAR CYZX 131000Z 05004KT 15SM BKN110 OVC230 M01/M03 A3039 RMK AC7CI1 SLP293 =
2018-11-13 09:00 METAR CYZX 130900Z 00000KT 15SM SCT150 OVC230 M02/M04 A3040 RMK AC3CI5 SLP298 =
2018-11-13 08:00 METAR CYZX 130800Z 21002KT 15SM BKN230 M01/M05 A3041 RMK CI5 SLP300 =

Support USWX by starting your Amazon purchase here.